Carter, MT (59420)

12:00 AM MDT on August 21, 2014 (GMT -0600)
North Fort Benton | Change Station
CLOSE
Current Station
Personal Weather Station
Location: Fort Benton, MT
Elevation: 2641 ft
Nearby Weather Stations

Elev 2641 ft 47.83 °N, 110.66 °W | Updated 6 seconds ago

Mostly Cloudy
Mostly Cloudy
60.4 °F
Feels Like 60.4 °F
N
0.0
Wind Variable Wind from North
Gusts 1.6 mph

Today
High -- | Low -- °F
--% Chance of Precip.
Yesterday
High -- | Low -- °F
Precip. -- in
6:27 AM 8:25 PM
Waning Crescent, 16% visible
Pressure 29.97 in
Visibility 10.0 miles
Clouds Mostly Cloudy 1000 ft
Dew Point 59 °F
Humidity 95%
Rainfall 0.10 in
Snow Depth Not available.
UV 0 out of 12
Pollen 7.60 out of 12
Air Quality Not available.
Flu Activity Not available.
METAR KGFA 210556Z AUTO 27008KT 10SM BKN010 14/12 A3001 RMK AO2 SLP148 60014 T01410122 10228 20137 52026

More Conditions Fewer Conditions

Pressure 29.97 in
Visibility 10.0 miles
Clouds Mostly Cloudy 1000 ft
Dew Point 59 °F
Humidity 95%
Rainfall 0.10 in
Snow Depth Not available.
UV 0 out of 12
Pollen 7.60 out of 12
Air Quality Not available.
Flu Activity Not available.
METAR KGFA 210556Z AUTO 27008KT 10SM BKN010 14/12 A3001 RMK AO2 SLP148 60014 T01410122 10228 20137 52026

More Conditions Fewer Conditions

10-Day Weather Forecast

Almanac

Astronomy

Aug. 21, 2014 Rise Set
Actual Time 6:27 AM MDT 8:25 PM MDT
Civil Twilight 5:54 AM MDT 8:58 PM MDT
Nautical Twilight 5:13 AM MDT 9:39 PM MDT
Astronomical Twilight 4:27 AM MDT 10:24 PM MDT
Moon 2:53 AM MDT 6:02 PM MDT
Length of Visible Light 15h 04m
Length of Day
13h 58m
Tomorrow will be 3m 12s shorter.
Waning Crescent, 16% of the Moon is Illuminated
Today
Waning Crescent
Aug 25
New
Sep 2
First Quarter
Sep 8
Full
Sep 15
Last Quarter

Today's Extremes

State Highs State Lows

Community

WunderPhotos

Upload Photos

1,745,858 photos uploaded!

Nearby

Snow Depth

Station Depth Elevation
Stringer Creek 0 in 6550 ft
Onion Park 0 in 7410 ft
Deadman Creek 0 in 6450 ft
Spur Park 0 in 8100 ft
Waldron 2 in 5600 ft

Earthquake Activity

City Distance Mag. Time & Date
No recent earthquake activity has been reported nearby.
Minimum magnitude displayed is 2.5.

Coastal Water Temperatures

Place Temperature
No Stations Reporting

Nearby Weather Stations